sensor_id;sensor_type;location;lat;lon;timestamp;P1;durP1;ratioP1;P2;durP2;ratioP2
21424;SDS011;10873;51.132;16.848;2023-05-16T00:00:57;6.20;;;5.22;;
21424;SDS011;10873;51.132;16.848;2023-05-16T00:03:25;7.32;;;5.40;;
21424;SDS011;10873;51.132;16.848;2023-05-16T00:05:52;6.18;;;4.90;;
21424;SDS011;10873;51.132;16.848;2023-05-16T00:08:18;6.35;;;4.97;;
21424;SDS011;10873;51.132;16.848;2023-05-16T00:10:46;8.13;;;5.63;;
21424;SDS011;10873;51.132;16.848;2023-05-16T00:13:11;6.35;;;5.30;;
21424;SDS011;10873;51.132;16.848;2023-05-16T00:15:38;6.05;;;5.30;;
21424;SDS011;10873;51.132;16.848;2023-05-16T00:18:04;5.00;;;4.43;;
21424;SDS011;10873;51.132;16.848;2023-05-16T00:20:30;5.22;;;4.38;;
21424;SDS011;10873;51.132;16.848;2023-05-16T00:22:56;7.53;;;5.07;;
21424;SDS011;10873;51.132;16.848;2023-05-16T00:25:25;6.55;;;4.88;;
21424;SDS011;10873;51.132;16.848;2023-05-16T00:27:53;5.88;;;4.70;;
21424;SDS011;10873;51.132;16.848;2023-05-16T00:30:19;8.20;;;5.35;;
21424;SDS011;10873;51.132;16.848;2023-05-16T00:32:46;7.05;;;5.10;;
21424;SDS011;10873;51.132;16.848;2023-05-16T00:35:13;6.45;;;4.85;;
21424;SDS011;10873;51.132;16.848;2023-05-16T00:37:38;5.30;;;4.60;;
21424;SDS011;10873;51.132;16.848;2023-05-16T00:40:05;8.65;;;4.90;;
21424;SDS011;10873;51.132;16.848;2023-05-16T00:42:31;6.47;;;4.68;;
21424;SDS011;10873;51.132;16.848;2023-05-16T00:44:59;5.88;;;4.78;;
21424;SDS011;10873;51.132;16.848;2023-05-16T00:47:25;6.00;;;4.47;;
21424;SDS011;10873;51.132;16.848;2023-05-16T00:49:51;5.43;;;4.53;;
21424;SDS011;10873;51.132;16.848;2023-05-16T00:52:17;5.97;;;4.75;;
21424;SDS011;10873;51.132;16.848;2023-05-16T00:54:43;5.82;;;4.45;;
21424;SDS011;10873;51.132;16.848;2023-05-16T00:57:09;6.28;;;5.03;;
21424;SDS011;10873;51.132;16.848;2023-05-16T00:59:36;5.57;;;4.55;;
21424;SDS011;10873;51.132;16.848;2023-05-16T01:02:03;5.30;;;4.80;;
21424;SDS011;10873;51.132;16.848;2023-05-16T01:04:29;6.80;;;4.53;;
21424;SDS011;10873;51.132;16.848;2023-05-16T01:06:57;5.18;;;4.55;;
21424;SDS011;10873;51.132;16.848;2023-05-16T01:09:23;5.20;;;4.70;;
21424;SDS011;10873;51.132;16.848;2023-05-16T01:11:50;7.80;;;4.53;;
21424;SDS011;10873;51.132;16.848;2023-05-16T01:14:23;6.05;;;4.28;;
21424;SDS011;10873;51.132;16.848;2023-05-16T01:16:55;5.63;;;4.50;;
21424;SDS011;10873;51.132;16.848;2023-05-16T01:19:37;5.13;;;4.15;;
21424;SDS011;10873;51.132;16.848;2023-05-16T01:22:17;5.90;;;4.57;;
21424;SDS011;10873;51.132;16.848;2023-05-16T01:24:56;7.00;;;4.20;;
21424;SDS011;10873;51.132;16.848;2023-05-16T01:27:31;6.88;;;4.32;;
21424;SDS011;10873;51.132;16.848;2023-05-16T01:29:58;6.03;;;4.15;;
21424;SDS011;10873;51.132;16.848;2023-05-16T01:32:24;5.10;;;4.20;;
21424;SDS011;10873;51.132;16.848;2023-05-16T01:34:51;4.68;;;4.20;;
21424;SDS011;10873;51.132;16.848;2023-05-16T01:37:18;5.65;;;4.68;;
21424;SDS011;10873;51.132;16.848;2023-05-16T01:39:50;4.65;;;4.15;;
21424;SDS011;10873;51.132;16.848;2023-05-16T01:42:20;5.35;;;4.20;;
21424;SDS011;10873;51.132;16.848;2023-05-16T01:44:53;4.93;;;4.30;;
21424;SDS011;10873;51.132;16.848;2023-05-16T01:47:24;6.28;;;4.50;;
21424;SDS011;10873;51.132;16.848;2023-05-16T01:49:53;4.85;;;4.15;;
21424;SDS011;10873;51.132;16.848;2023-05-16T01:52:25;5.22;;;4.13;;
21424;SDS011;10873;51.132;16.848;2023-05-16T01:54:53;4.28;;;3.85;;
21424;SDS011;10873;51.132;16.848;2023-05-16T01:57:23;5.63;;;3.97;;
21424;SDS011;10873;51.132;16.848;2023-05-16T01:59:52;5.10;;;4.28;;
21424;SDS011;10873;51.132;16.848;2023-05-16T02:02:18;5.32;;;4.00;;
21424;SDS011;10873;51.132;16.848;2023-05-16T02:04:45;5.20;;;4.05;;
21424;SDS011;10873;51.132;16.848;2023-05-16T02:07:11;4.60;;;3.97;;
21424;SDS011;10873;51.132;16.848;2023-05-16T02:09:39;4.65;;;4.22;;
21424;SDS011;10873;51.132;16.848;2023-05-16T02:12:05;6.97;;;3.95;;
21424;SDS011;10873;51.132;16.848;2023-05-16T02:14:31;5.85;;;4.13;;
21424;SDS011;10873;51.132;16.848;2023-05-16T02:16:59;5.78;;;4.03;;
21424;SDS011;10873;51.132;16.848;2023-05-16T02:19:25;5.35;;;3.80;;
21424;SDS011;10873;51.132;16.848;2023-05-16T02:21:51;4.78;;;3.75;;
21424;SDS011;10873;51.132;16.848;2023-05-16T02:24:17;6.32;;;3.72;;
21424;SDS011;10873;51.132;16.848;2023-05-16T02:26:43;7.95;;;3.70;;
21424;SDS011;10873;51.132;16.848;2023-05-16T02:29:09;4.15;;;3.67;;
21424;SDS011;10873;51.132;16.848;2023-05-16T02:31:35;4.93;;;3.50;;
21424;SDS011;10873;51.132;16.848;2023-05-16T02:34:02;4.80;;;3.67;;
21424;SDS011;10873;51.132;16.848;2023-05-16T02:36:28;4.45;;;3.70;;
21424;SDS011;10873;51.132;16.848;2023-05-16T02:38:55;4.53;;;3.70;;
21424;SDS011;10873;51.132;16.848;2023-05-16T02:41:21;6.13;;;3.58;;
21424;SDS011;10873;51.132;16.848;2023-05-16T02:43:47;4.25;;;3.40;;
21424;SDS011;10873;51.132;16.848;2023-05-16T02:46:20;5.30;;;3.72;;
21424;SDS011;10873;51.132;16.848;2023-05-16T02:48:50;5.95;;;3.58;;
21424;SDS011;10873;51.132;16.848;2023-05-16T02:51:18;3.90;;;3.50;;
21424;SDS011;10873;51.132;16.848;2023-05-16T02:53:45;6.07;;;3.53;;
21424;SDS011;10873;51.132;16.848;2023-05-16T02:56:11;3.97;;;3.42;;
21424;SDS011;10873;51.132;16.848;2023-05-16T02:58:37;4.32;;;3.15;;
21424;SDS011;10873;51.132;16.848;2023-05-16T03:01:03;4.32;;;3.50;;
21424;SDS011;10873;51.132;16.848;2023-05-16T03:03:29;4.22;;;3.70;;
21424;SDS011;10873;51.132;16.848;2023-05-16T03:05:55;4.00;;;3.33;;
21424;SDS011;10873;51.132;16.848;2023-05-16T03:08:22;3.60;;;3.30;;
21424;SDS011;10873;51.132;16.848;2023-05-16T03:10:48;3.90;;;3.22;;
21424;SDS011;10873;51.132;16.848;2023-05-16T03:13:15;5.40;;;3.40;;
21424;SDS011;10873;51.132;16.848;2023-05-16T03:15:41;6.10;;;3.63;;
21424;SDS011;10873;51.132;16.848;2023-05-16T03:18:07;3.97;;;3.28;;
21424;SDS011;10873;51.132;16.848;2023-05-16T03:20:33;3.75;;;3.45;;
21424;SDS011;10873;51.132;16.848;2023-05-16T03:22:59;3.75;;;3.22;;
21424;SDS011;10873;51.132;16.848;2023-05-16T03:25:26;5.25;;;3.42;;
21424;SDS011;10873;51.132;16.848;2023-05-16T03:27:52;5.55;;;3.58;;
21424;SDS011;10873;51.132;16.848;2023-05-16T03:30:18;4.35;;;3.58;;
21424;SDS011;10873;51.132;16.848;2023-05-16T03:32:45;3.47;;;3.17;;
21424;SDS011;10873;51.132;16.848;2023-05-16T03:35:11;5.40;;;3.38;;
21424;SDS011;10873;51.132;16.848;2023-05-16T03:37:37;4.65;;;3.50;;
21424;SDS011;10873;51.132;16.848;2023-05-16T03:40:03;3.50;;;3.15;;
21424;SDS011;10873;51.132;16.848;2023-05-16T03:42:32;3.28;;;2.97;;
21424;SDS011;10873;51.132;16.848;2023-05-16T03:44:58;4.20;;;3.40;;
21424;SDS011;10873;51.132;16.848;2023-05-16T03:47:24;3.42;;;3.13;;
21424;SDS011;10873;51.132;16.848;2023-05-16T03:49:50;3.78;;;3.03;;
21424;SDS011;10873;51.132;16.848;2023-05-16T03:52:17;4.18;;;3.50;;
21424;SDS011;10873;51.132;16.848;2023-05-16T03:54:43;5.90;;;3.17;;
21424;SDS011;10873;51.132;16.848;2023-05-16T03:57:09;5.82;;;3.20;;
21424;SDS011;10873;51.132;16.848;2023-05-16T03:59:36;3.63;;;3.33;;
21424;SDS011;10873;51.132;16.848;2023-05-16T04:02:03;3.20;;;2.90;;
21424;SDS011;10873;51.132;16.848;2023-05-16T04:04:29;3.47;;;3.08;;
21424;SDS011;10873;51.132;16.848;2023-05-16T04:06:56;13.75;;;3.53;;
21424;SDS011;10873;51.132;16.848;2023-05-16T04:09:21;16.52;;;4.50;;
21424;SDS011;10873;51.132;16.848;2023-05-16T04:11:48;14.90;;;4.20;;
21424;SDS011;10873;51.132;16.848;2023-05-16T04:14:14;12.48;;;3.88;;
21424;SDS011;10873;51.132;16.848;2023-05-16T04:16:41;6.93;;;3.47;;
21424;SDS011;10873;51.132;16.848;2023-05-16T04:19:07;11.32;;;3.67;;
21424;SDS011;10873;51.132;16.848;2023-05-16T04:21:33;8.57;;;3.30;;
21424;SDS011;10873;51.132;16.848;2023-05-16T04:24:00;5.90;;;3.40;;
21424;SDS011;10873;51.132;16.848;2023-05-16T04:26:26;5.22;;;3.33;;
21424;SDS011;10873;51.132;16.848;2023-05-16T04:28:54;5.72;;;3.53;;
21424;SDS011;10873;51.132;16.848;2023-05-16T04:31:20;7.43;;;3.42;;
21424;SDS011;10873;51.132;16.848;2023-05-16T04:33:48;6.85;;;3.40;;
21424;SDS011;10873;51.132;16.848;2023-05-16T04:36:14;12.93;;;3.83;;
21424;SDS011;10873;51.132;16.848;2023-05-16T04:38:40;4.70;;;3.30;;
21424;SDS011;10873;51.132;16.848;2023-05-16T04:41:07;7.82;;;4.00;;
21424;SDS011;10873;51.132;16.848;2023-05-16T04:43:33;8.50;;;3.45;;
21424;SDS011;10873;51.132;16.848;2023-05-16T04:45:59;6.10;;;3.47;;
21424;SDS011;10873;51.132;16.848;2023-05-16T04:48:25;4.60;;;3.28;;
21424;SDS011;10873;51.132;16.848;2023-05-16T04:50:53;4.13;;;3.22;;
21424;SDS011;10873;51.132;16.848;2023-05-16T04:53:19;7.38;;;3.33;;
21424;SDS011;10873;51.132;16.848;2023-05-16T04:55:45;7.80;;;3.47;;
21424;SDS011;10873;51.132;16.848;2023-05-16T04:58:11;4.80;;;3.45;;
21424;SDS011;10873;51.132;16.848;2023-05-16T05:00:37;4.45;;;3.53;;
21424;SDS011;10873;51.132;16.848;2023-05-16T05:03:03;6.20;;;3.28;;
21424;SDS011;10873;51.132;16.848;2023-05-16T05:05:30;6.10;;;3.42;;
21424;SDS011;10873;51.132;16.848;2023-05-16T05:07:57;7.47;;;3.75;;
21424;SDS011;10873;51.132;16.848;2023-05-16T05:10:25;4.53;;;3.00;;
21424;SDS011;10873;51.132;16.848;2023-05-16T05:12:52;5.28;;;3.03;;
21424;SDS011;10873;51.132;16.848;2023-05-16T05:15:18;6.40;;;3.17;;
21424;SDS011;10873;51.132;16.848;2023-05-16T05:17:44;3.75;;;2.78;;
21424;SDS011;10873;51.132;16.848;2023-05-16T05:20:11;4.38;;;3.28;;
21424;SDS011;10873;51.132;16.848;2023-05-16T05:22:37;5.32;;;3.35;;
21424;SDS011;10873;51.132;16.848;2023-05-16T05:25:05;5.20;;;3.42;;
21424;SDS011;10873;51.132;16.848;2023-05-16T05:27:31;3.40;;;3.10;;
21424;SDS011;10873;51.132;16.848;2023-05-16T05:29:57;4.88;;;3.50;;
21424;SDS011;10873;51.132;16.848;2023-05-16T05:32:23;4.15;;;3.00;;
21424;SDS011;10873;51.132;16.848;2023-05-16T05:34:49;3.30;;;2.92;;
21424;SDS011;10873;51.132;16.848;2023-05-16T05:37:16;5.32;;;3.40;;
21424;SDS011;10873;51.132;16.848;2023-05-16T05:39:42;4.60;;;3.00;;
21424;SDS011;10873;51.132;16.848;2023-05-16T05:42:10;3.45;;;2.85;;
21424;SDS011;10873;51.132;16.848;2023-05-16T05:44:36;5.30;;;3.33;;
21424;SDS011;10873;51.132;16.848;2023-05-16T05:47:02;3.55;;;3.00;;
21424;SDS011;10873;51.132;16.848;2023-05-16T05:49:30;4.40;;;3.40;;
21424;SDS011;10873;51.132;16.848;2023-05-16T05:51:56;4.25;;;3.13;;
21424;SDS011;10873;51.132;16.848;2023-05-16T05:54:22;3.42;;;3.13;;
21424;SDS011;10873;51.132;16.848;2023-05-16T05:56:49;5.45;;;3.08;;
21424;SDS011;10873;51.132;16.848;2023-05-16T05:59:16;3.47;;;3.13;;
21424;SDS011;10873;51.132;16.848;2023-05-16T06:01:42;4.68;;;3.10;;
21424;SDS011;10873;51.132;16.848;2023-05-16T06:04:09;8.50;;;3.00;;
21424;SDS011;10873;51.132;16.848;2023-05-16T06:06:35;5.60;;;3.28;;
21424;SDS011;10873;51.132;16.848;2023-05-16T06:09:02;3.33;;;2.92;;
21424;SDS011;10873;51.132;16.848;2023-05-16T06:11:28;3.40;;;3.10;;
21424;SDS011;10873;51.132;16.848;2023-05-16T06:13:54;4.22;;;3.70;;
21424;SDS011;10873;51.132;16.848;2023-05-16T06:16:24;4.40;;;2.97;;
21424;SDS011;10873;51.132;16.848;2023-05-16T06:18:50;3.80;;;3.10;;
21424;SDS011;10873;51.132;16.848;2023-05-16T06:21:16;6.85;;;3.58;;
21424;SDS011;10873;51.132;16.848;2023-05-16T06:23:42;4.28;;;3.38;;
21424;SDS011;10873;51.132;16.848;2023-05-16T06:26:08;10.05;;;3.40;;
21424;SDS011;10873;51.132;16.848;2023-05-16T06:28:34;3.67;;;3.03;;
21424;SDS011;10873;51.132;16.848;2023-05-16T06:31:00;8.52;;;3.38;;
21424;SDS011;10873;51.132;16.848;2023-05-16T06:33:28;3.72;;;3.38;;
21424;SDS011;10873;51.132;16.848;2023-05-16T06:35:53;7.50;;;3.53;;
21424;SDS011;10873;51.132;16.848;2023-05-16T06:38:20;11.93;;;3.80;;
21424;SDS011;10873;51.132;16.848;2023-05-16T06:40:45;5.07;;;3.60;;
21424;SDS011;10873;51.132;16.848;2023-05-16T06:43:12;6.05;;;3.50;;
21424;SDS011;10873;51.132;16.848;2023-05-16T06:45:38;5.85;;;3.53;;
21424;SDS011;10873;51.132;16.848;2023-05-16T06:48:05;5.10;;;3.30;;
21424;SDS011;10873;51.132;16.848;2023-05-16T06:50:33;5.22;;;3.50;;
21424;SDS011;10873;51.132;16.848;2023-05-16T06:53:02;11.85;;;3.67;;
21424;SDS011;10873;51.132;16.848;2023-05-16T06:55:29;7.88;;;3.47;;
21424;SDS011;10873;51.132;16.848;2023-05-16T06:57:55;7.00;;;3.70;;
21424;SDS011;10873;51.132;16.848;2023-05-16T07:00:21;7.00;;;3.47;;
21424;SDS011;10873;51.132;16.848;2023-05-16T07:02:47;7.38;;;3.60;;
21424;SDS011;10873;51.132;16.848;2023-05-16T07:05:13;6.95;;;3.60;;
21424;SDS011;10873;51.132;16.848;2023-05-16T07:07:41;5.15;;;3.65;;
21424;SDS011;10873;51.132;16.848;2023-05-16T07:10:07;6.97;;;3.92;;
21424;SDS011;10873;51.132;16.848;2023-05-16T07:12:34;7.57;;;3.90;;
21424;SDS011;10873;51.132;16.848;2023-05-16T07:15:02;6.28;;;4.00;;
21424;SDS011;10873;51.132;16.848;2023-05-16T07:17:28;8.88;;;4.30;;
21424;SDS011;10873;51.132;16.848;2023-05-16T07:19:54;6.95;;;3.70;;
21424;SDS011;10873;51.132;16.848;2023-05-16T07:22:20;5.25;;;3.75;;
21424;SDS011;10873;51.132;16.848;2023-05-16T07:24:47;6.60;;;3.85;;
21424;SDS011;10873;51.132;16.848;2023-05-16T07:27:13;8.35;;;3.90;;
21424;SDS011;10873;51.132;16.848;2023-05-16T07:29:40;11.57;;;4.57;;
21424;SDS011;10873;51.132;16.848;2023-05-16T07:32:06;12.60;;;4.72;;
21424;SDS011;10873;51.132;16.848;2023-05-16T07:34:32;5.30;;;4.18;;
21424;SDS011;10873;51.132;16.848;2023-05-16T07:36:58;5.68;;;4.60;;
21424;SDS011;10873;51.132;16.848;2023-05-16T07:39:24;8.30;;;4.18;;
21424;SDS011;10873;51.132;16.848;2023-05-16T07:41:52;6.53;;;4.43;;
21424;SDS011;10873;51.132;16.848;2023-05-16T07:44:18;11.38;;;4.85;;
21424;SDS011;10873;51.132;16.848;2023-05-16T07:46:44;7.32;;;5.03;;
21424;SDS011;10873;51.132;16.848;2023-05-16T07:49:10;5.90;;;4.78;;
21424;SDS011;10873;51.132;16.848;2023-05-16T07:51:36;12.93;;;5.13;;
21424;SDS011;10873;51.132;16.848;2023-05-16T07:54:02;5.80;;;4.05;;
21424;SDS011;10873;51.132;16.848;2023-05-16T07:56:28;9.20;;;4.43;;
21424;SDS011;10873;51.132;16.848;2023-05-16T07:58:55;9.13;;;5.25;;
21424;SDS011;10873;51.132;16.848;2023-05-16T08:01:21;11.32;;;6.93;;
21424;SDS011;10873;51.132;16.848;2023-05-16T08:03:47;16.63;;;7.53;;
21424;SDS011;10873;51.132;16.848;2023-05-16T08:06:13;11.52;;;7.97;;
21424;SDS011;10873;51.132;16.848;2023-05-16T08:08:39;15.82;;;8.50;;
21424;SDS011;10873;51.132;16.848;2023-05-16T08:11:05;10.52;;;7.47;;
21424;SDS011;10873;51.132;16.848;2023-05-16T08:13:31;11.25;;;6.60;;
21424;SDS011;10873;51.132;16.848;2023-05-16T08:15:59;10.60;;;6.05;;
21424;SDS011;10873;51.132;16.848;2023-05-16T08:18:25;9.35;;;6.03;;
21424;SDS011;10873;51.132;16.848;2023-05-16T08:20:51;11.35;;;5.93;;
21424;SDS011;10873;51.132;16.848;2023-05-16T08:23:17;7.80;;;5.60;;
21424;SDS011;10873;51.132;16.848;2023-05-16T08:25:43;6.82;;;4.97;;
21424;SDS011;10873;51.132;16.848;2023-05-16T08:28:09;5.93;;;4.75;;
21424;SDS011;10873;51.132;16.848;2023-05-16T08:30:35;6.43;;;4.72;;
21424;SDS011;10873;51.132;16.848;2023-05-16T08:33:02;5.95;;;4.60;;
21424;SDS011;10873;51.132;16.848;2023-05-16T08:35:30;7.30;;;4.78;;
21424;SDS011;10873;51.132;16.848;2023-05-16T08:37:56;7.20;;;4.53;;
21424;SDS011;10873;51.132;16.848;2023-05-16T08:40:24;8.48;;;4.88;;
21424;SDS011;10873;51.132;16.848;2023-05-16T08:42:51;7.97;;;4.50;;
21424;SDS011;10873;51.132;16.848;2023-05-16T08:45:18;6.53;;;4.68;;
21424;SDS011;10873;51.132;16.848;2023-05-16T08:47:44;5.70;;;4.50;;
21424;SDS011;10873;51.132;16.848;2023-05-16T08:50:17;5.30;;;4.00;;
21424;SDS011;10873;51.132;16.848;2023-05-16T08:52:43;8.15;;;4.30;;
21424;SDS011;10873;51.132;16.848;2023-05-16T08:55:15;7.13;;;4.03;;
21424;SDS011;10873;51.132;16.848;2023-05-16T08:57:44;6.60;;;4.07;;
21424;SDS011;10873;51.132;16.848;2023-05-16T09:00:11;5.93;;;4.10;;
21424;SDS011;10873;51.132;16.848;2023-05-16T09:02:38;5.45;;;4.13;;
21424;SDS011;10873;51.132;16.848;2023-05-16T09:05:04;7.80;;;4.20;;
21424;SDS011;10873;51.132;16.848;2023-05-16T09:07:36;8.00;;;4.38;;
21424;SDS011;10873;51.132;16.848;2023-05-16T09:10:03;11.43;;;4.28;;
21424;SDS011;10873;51.132;16.848;2023-05-16T09:12:30;12.50;;;4.65;;
21424;SDS011;10873;51.132;16.848;2023-05-16T09:14:57;10.98;;;4.07;;
21424;SDS011;10873;51.132;16.848;2023-05-16T09:17:24;10.77;;;4.55;;
21424;SDS011;10873;51.132;16.848;2023-05-16T09:19:50;11.25;;;3.97;;
21424;SDS011;10873;51.132;16.848;2023-05-16T09:22:21;7.05;;;4.15;;
21424;SDS011;10873;51.132;16.848;2023-05-16T09:24:49;9.00;;;4.28;;
21424;SDS011;10873;51.132;16.848;2023-05-16T09:27:15;8.38;;;4.18;;
21424;SDS011;10873;51.132;16.848;2023-05-16T09:29:42;8.40;;;4.18;;
21424;SDS011;10873;51.132;16.848;2023-05-16T09:32:08;17.27;;;4.43;;
21424;SDS011;10873;51.132;16.848;2023-05-16T09:34:37;9.35;;;3.83;;
21424;SDS011;10873;51.132;16.848;2023-05-16T09:37:04;12.68;;;4.47;;
21424;SDS011;10873;51.132;16.848;2023-05-16T09:39:30;13.88;;;4.20;;
21424;SDS011;10873;51.132;16.848;2023-05-16T09:41:58;12.52;;;4.60;;
21424;SDS011;10873;51.132;16.848;2023-05-16T09:44:25;12.95;;;4.95;;
21424;SDS011;10873;51.132;16.848;2023-05-16T09:46:53;17.75;;;5.53;;
21424;SDS011;10873;51.132;16.848;2023-05-16T09:49:19;13.25;;;4.88;;
21424;SDS011;10873;51.132;16.848;2023-05-16T09:51:45;14.20;;;4.82;;
21424;SDS011;10873;51.132;16.848;2023-05-16T09:54:12;16.83;;;5.03;;
21424;SDS011;10873;51.132;16.848;2023-05-16T09:56:47;13.10;;;4.97;;
21424;SDS011;10873;51.132;16.848;2023-05-16T09:59:15;13.77;;;4.80;;
21424;SDS011;10873;51.132;16.848;2023-05-16T10:01:41;13.10;;;5.00;;
21424;SDS011;10873;51.132;16.848;2023-05-16T10:04:08;9.23;;;4.88;;
21424;SDS011;10873;51.132;16.848;2023-05-16T10:06:38;14.45;;;4.13;;
21424;SDS011;10873;51.132;16.848;2023-05-16T10:09:09;9.15;;;4.82;;
21424;SDS011;10873;51.132;16.848;2023-05-16T10:11:36;10.00;;;3.95;;
21424;SDS011;10873;51.132;16.848;2023-05-16T10:14:03;9.63;;;4.15;;
21424;SDS011;10873;51.132;16.848;2023-05-16T10:16:31;10.25;;;4.18;;
21424;SDS011;10873;51.132;16.848;2023-05-16T10:18:59;10.48;;;4.78;;
21424;SDS011;10873;51.132;16.848;2023-05-16T10:21:27;8.82;;;4.32;;
21424;SDS011;10873;51.132;16.848;2023-05-16T10:23:55;8.00;;;4.22;;
21424;SDS011;10873;51.132;16.848;2023-05-16T10:26:23;8.05;;;4.25;;
21424;SDS011;10873;51.132;16.848;2023-05-16T10:28:51;8.15;;;4.47;;
21424;SDS011;10873;51.132;16.848;2023-05-16T10:31:17;10.50;;;4.68;;
21424;SDS011;10873;51.132;16.848;2023-05-16T10:33:46;11.32;;;4.65;;
21424;SDS011;10873;51.132;16.848;2023-05-16T10:36:12;13.55;;;5.00;;
21424;SDS011;10873;51.132;16.848;2023-05-16T10:38:40;12.30;;;4.80;;
21424;SDS011;10873;51.132;16.848;2023-05-16T10:41:09;10.40;;;4.70;;
21424;SDS011;10873;51.132;16.848;2023-05-16T10:43:35;9.57;;;5.25;;
21424;SDS011;10873;51.132;16.848;2023-05-16T10:46:02;20.92;;;6.03;;
21424;SDS011;10873;51.132;16.848;2023-05-16T10:48:30;6.85;;;5.32;;
21424;SDS011;10873;51.132;16.848;2023-05-16T10:50:58;10.15;;;5.60;;
21424;SDS011;10873;51.132;16.848;2023-05-16T10:53:28;11.05;;;5.53;;
21424;SDS011;10873;51.132;16.848;2023-05-16T10:56:05;7.25;;;5.45;;
21424;SDS011;10873;51.132;16.848;2023-05-16T10:58:39;11.77;;;5.45;;
21424;SDS011;10873;51.132;16.848;2023-05-16T11:01:19;12.52;;;5.95;;
21424;SDS011;10873;51.132;16.848;2023-05-16T11:03:59;8.18;;;5.25;;
21424;SDS011;10873;51.132;16.848;2023-05-16T11:06:28;10.80;;;5.45;;
21424;SDS011;10873;51.132;16.848;2023-05-16T11:08:57;10.48;;;5.70;;
21424;SDS011;10873;51.132;16.848;2023-05-16T11:11:38;7.45;;;5.55;;
21424;SDS011;10873;51.132;16.848;2023-05-16T11:14:05;12.65;;;6.05;;
21424;SDS011;10873;51.132;16.848;2023-05-16T11:16:31;11.00;;;5.95;;
21424;SDS011;10873;51.132;16.848;2023-05-16T11:19:03;7.82;;;5.30;;
21424;SDS011;10873;51.132;16.848;2023-05-16T11:24:36;9.18;;;6.03;;
21424;SDS011;10873;51.132;16.848;2023-05-16T11:27:04;8.95;;;6.22;;
21424;SDS011;10873;51.132;16.848;2023-05-16T11:29:31;18.13;;;6.10;;
21424;SDS011;10873;51.132;16.848;2023-05-16T11:31:58;14.20;;;6.53;;
21424;SDS011;10873;51.132;16.848;2023-05-16T11:34:24;12.32;;;6.47;;
21424;SDS011;10873;51.132;16.848;2023-05-16T11:36:51;9.55;;;6.05;;
21424;SDS011;10873;51.132;16.848;2023-05-16T11:39:18;12.90;;;6.40;;
21424;SDS011;10873;51.132;16.848;2023-05-16T11:41:44;11.88;;;6.10;;
21424;SDS011;10873;51.132;16.848;2023-05-16T11:44:11;8.98;;;6.10;;
21424;SDS011;10873;51.132;16.848;2023-05-16T11:46:38;16.75;;;7.32;;
21424;SDS011;10873;51.132;16.848;2023-05-16T11:49:05;9.20;;;6.30;;
21424;SDS011;10873;51.132;16.848;2023-05-16T11:51:31;12.43;;;6.47;;
21424;SDS011;10873;51.132;16.848;2023-05-16T11:53:59;10.88;;;6.65;;
21424;SDS011;10873;51.132;16.848;2023-05-16T11:56:30;12.18;;;6.32;;
21424;SDS011;10873;51.132;16.848;2023-05-16T11:58:56;8.82;;;6.47;;
21424;SDS011;10873;51.132;16.848;2023-05-16T12:01:23;8.70;;;6.45;;
21424;SDS011;10873;51.132;16.848;2023-05-16T12:03:54;9.30;;;6.63;;
21424;SDS011;10873;51.132;16.848;2023-05-16T12:06:20;8.65;;;6.40;;
21424;SDS011;10873;51.132;16.848;2023-05-16T12:08:48;8.65;;;6.93;;
21424;SDS011;10873;51.132;16.848;2023-05-16T12:11:15;9.50;;;7.03;;
21424;SDS011;10873;51.132;16.848;2023-05-16T12:13:43;7.80;;;7.00;;
21424;SDS011;10873;51.132;16.848;2023-05-16T12:16:10;8.15;;;6.70;;
21424;SDS011;10873;51.132;16.848;2023-05-16T12:18:36;10.02;;;6.68;;
21424;SDS011;10873;51.132;16.848;2023-05-16T12:21:03;10.20;;;6.80;;
21424;SDS011;10873;51.132;16.848;2023-05-16T12:23:31;10.60;;;7.07;;
21424;SDS011;10873;51.132;16.848;2023-05-16T12:25:57;8.50;;;6.75;;
21424;SDS011;10873;51.132;16.848;2023-05-16T12:28:29;10.82;;;6.93;;
21424;SDS011;10873;51.132;16.848;2023-05-16T12:30:59;11.15;;;7.65;;
21424;SDS011;10873;51.132;16.848;2023-05-16T12:33:26;10.70;;;7.25;;
21424;SDS011;10873;51.132;16.848;2023-05-16T12:35:52;10.10;;;7.40;;
21424;SDS011;10873;51.132;16.848;2023-05-16T12:38:19;11.13;;;6.88;;
21424;SDS011;10873;51.132;16.848;2023-05-16T12:40:45;9.48;;;6.47;;
21424;SDS011;10873;51.132;16.848;2023-05-16T12:43:12;10.73;;;6.63;;
21424;SDS011;10873;51.132;16.848;2023-05-16T12:45:39;9.90;;;6.75;;
21424;SDS011;10873;51.132;16.848;2023-05-16T12:48:11;9.90;;;7.15;;
21424;SDS011;10873;51.132;16.848;2023-05-16T12:50:38;11.32;;;6.63;;
21424;SDS011;10873;51.132;16.848;2023-05-16T12:53:09;10.60;;;6.78;;
21424;SDS011;10873;51.132;16.848;2023-05-16T12:55:37;11.25;;;7.13;;
21424;SDS011;10873;51.132;16.848;2023-05-16T12:58:03;10.27;;;6.72;;
21424;SDS011;10873;51.132;16.848;2023-05-16T13:00:29;10.15;;;7.20;;
21424;SDS011;10873;51.132;16.848;2023-05-16T13:02:56;10.98;;;7.00;;
21424;SDS011;10873;51.132;16.848;2023-05-16T13:05:23;11.23;;;7.28;;
21424;SDS011;10873;51.132;16.848;2023-05-16T13:07:50;14.32;;;8.00;;
21424;SDS011;10873;51.132;16.848;2023-05-16T13:10:16;18.92;;;7.95;;
21424;SDS011;10873;51.132;16.848;2023-05-16T13:12:42;18.80;;;8.32;;
21424;SDS011;10873;51.132;16.848;2023-05-16T13:15:09;15.68;;;7.72;;
21424;SDS011;10873;51.132;16.848;2023-05-16T13:17:36;10.45;;;7.65;;
21424;SDS011;10873;51.132;16.848;2023-05-16T13:20:03;12.85;;;7.43;;
21424;SDS011;10873;51.132;16.848;2023-05-16T13:22:35;12.02;;;7.43;;
21424;SDS011;10873;51.132;16.848;2023-05-16T13:25:01;16.05;;;8.07;;
21424;SDS011;10873;51.132;16.848;2023-05-16T13:27:29;16.88;;;8.23;;
21424;SDS011;10873;51.132;16.848;2023-05-16T13:29:55;13.55;;;8.15;;
21424;SDS011;10873;51.132;16.848;2023-05-16T13:32:21;12.85;;;8.38;;
21424;SDS011;10873;51.132;16.848;2023-05-16T13:34:47;13.55;;;8.75;;
21424;SDS011;10873;51.132;16.848;2023-05-16T13:37:13;14.85;;;8.63;;
21424;SDS011;10873;51.132;16.848;2023-05-16T13:39:41;17.77;;;9.30;;
21424;SDS011;10873;51.132;16.848;2023-05-16T13:42:07;13.55;;;8.73;;
21424;SDS011;10873;51.132;16.848;2023-05-16T13:44:33;14.15;;;8.85;;
21424;SDS011;10873;51.132;16.848;2023-05-16T13:47:01;17.83;;;9.00;;
21424;SDS011;10873;51.132;16.848;2023-05-16T13:49:27;14.18;;;9.20;;
21424;SDS011;10873;51.132;16.848;2023-05-16T13:51:53;13.95;;;9.45;;
21424;SDS011;10873;51.132;16.848;2023-05-16T13:54:19;16.83;;;9.48;;
21424;SDS011;10873;51.132;16.848;2023-05-16T13:56:48;14.23;;;9.63;;
21424;SDS011;10873;51.132;16.848;2023-05-16T13:59:14;19.92;;;9.68;;
21424;SDS011;10873;51.132;16.848;2023-05-16T14:01:40;28.67;;;11.43;;
21424;SDS011;10873;51.132;16.848;2023-05-16T14:04:06;15.40;;;9.77;;
21424;SDS011;10873;51.132;16.848;2023-05-16T14:06:32;15.05;;;9.10;;
21424;SDS011;10873;51.132;16.848;2023-05-16T14:08:58;21.25;;;11.27;;
21424;SDS011;10873;51.132;16.848;2023-05-16T14:11:24;17.00;;;11.93;;
21424;SDS011;10873;51.132;16.848;2023-05-16T14:13:52;17.40;;;11.60;;
21424;SDS011;10873;51.132;16.848;2023-05-16T14:16:19;15.75;;;11.20;;
21424;SDS011;10873;51.132;16.848;2023-05-16T14:18:45;16.83;;;10.50;;
21424;SDS011;10873;51.132;16.848;2023-05-16T14:21:12;16.77;;;11.32;;
21424;SDS011;10873;51.132;16.848;2023-05-16T14:23:38;17.17;;;10.70;;
21424;SDS011;10873;51.132;16.848;2023-05-16T14:26:05;25.00;;;13.35;;
21424;SDS011;10873;51.132;16.848;2023-05-16T14:28:31;22.63;;;12.55;;
21424;SDS011;10873;51.132;16.848;2023-05-16T14:30:59;22.05;;;11.60;;
21424;SDS011;10873;51.132;16.848;2023-05-16T14:33:25;21.83;;;11.68;;